Terminal Aerodrome Forecast
Issued by NWS Tampa Bay Area, FL

Home | Current Version | Previous Version | Text Only | Print | Product List | Glossary On
Versions: 1 2 3 4 5 6 7 8 9 10 11 12 13 14 15
000
FTUS42 KTBW 180526
TAFFMY
TAF
KFMY 180526Z 1806/1906 07004KT P6SM SKC
     FM181400 10006KT P6SM FEW250
     FM181900 25006KT P6SM SKC
     FM190200 VRB03KT P6SM SKC=

USA.gov is the U.S. government's official web portal to all federal, state and local government web resources and services.